Terminal Aerodrome Forecast
Issued by NWS Medford, OR

Home | Current Version | Previous Version | Text Only | Print | Product List | Glossary On
Versions: 1 2 3 4 5 6 7 8 9 10 11 12 13 14 15 16 17 18 19 20
000
FTUS46 KMFR 210912 AAA
TAFMFR
TAF AMD
KMFR 210912Z 2109/2206 00000KT P6SM -RA FEW010 SCT025 OVC040
     FM211000 00000KT 4SM -RA BR SCT003 OVC030
     FM211200 VRB03KT 2SM -RA BR OVC007
     FM211600 VRB03KT 5SM -RA BR SCT007 BKN015 OVC025=

USA.gov is the U.S. government's official web portal to all federal, state and local government web resources and services.